createdAt,value
2023-03-23T15:58:11.921Z,100158.69
2023-03-23T16:00:40.430Z,100179.72
2023-03-23T16:03:14.485Z,100185.94
2023-03-23T16:05:41.724Z,100178.19
2023-03-23T16:08:11.818Z,100186.16
2023-03-23T16:10:39.150Z,100183.53
2023-03-23T16:13:07.073Z,100187.94
2023-03-23T16:15:34.157Z,100174.00
2023-03-23T16:18:01.074Z,100180.13
2023-03-23T16:20:30.199Z,100173.19
2023-03-23T16:22:57.486Z,100184.47
2023-03-23T16:25:24.370Z,100180.28
2023-03-23T16:27:52.687Z,100209.00
2023-03-23T16:30:24.129Z,100198.59
2023-03-23T16:32:51.498Z,100198.59
2023-03-23T16:35:20.159Z,100202.13
2023-03-23T16:38:07.112Z,100204.69
2023-03-23T16:40:34.716Z,100194.22
2023-03-23T16:43:01.622Z,100194.19
2023-03-23T16:45:35.706Z,100187.22
2023-03-23T16:48:02.630Z,100196.84
2023-03-23T16:50:30.085Z,100199.53
2023-03-23T16:52:57.446Z,100200.53
2023-03-23T16:55:26.127Z,100211.13
2023-03-23T16:58:05.396Z,100208.59
2023-03-23T17:00:40.874Z,100222.81
2023-03-23T17:03:08.437Z,100236.84
2023-03-23T17:05:37.127Z,100243.94
2023-03-23T17:08:04.620Z,100244.09
2023-03-23T17:10:32.241Z,100250.38
2023-03-23T17:12:59.206Z,100254.00
2023-03-23T17:15:26.149Z,100262.81
2023-03-23T17:17:54.795Z,100260.31
2023-03-23T17:20:22.402Z,100260.53
2023-03-23T17:22:49.488Z,100265.00
2023-03-23T17:25:16.493Z,100272.97
2023-03-23T17:27:43.409Z,100280.88
2023-03-23T17:30:11.457Z,100284.56
2023-03-23T17:32:39.091Z,100288.09
2023-03-23T17:35:06.977Z,100295.16
2023-03-23T17:37:34.448Z,100280.38
2023-03-23T17:40:01.371Z,100281.34
2023-03-23T17:42:29.550Z,100286.59
2023-03-23T17:44:56.468Z,100259.75
2023-03-23T17:47:24.095Z,100281.47
2023-03-23T17:49:51.382Z,100284.94
2023-03-23T17:52:18.293Z,100281.47
2023-03-23T17:54:45.494Z,100279.72
2023-03-23T17:57:12.469Z,100277.09
2023-03-23T17:59:39.548Z,100274.50
2023-03-23T18:02:06.670Z,100278.88
2023-03-23T18:04:33.598Z,100283.25
2023-03-23T18:07:00.970Z,100295.38
2023-03-23T18:09:28.176Z,100295.38
2023-03-23T18:11:56.558Z,100293.63
2023-03-23T18:14:23.563Z,100279.66
2023-03-23T18:16:50.609Z,100277.03
2023-03-23T18:19:17.594Z,100277.97
2023-03-23T18:21:46.000Z,100285.00
2023-03-23T18:24:13.221Z,100293.72
2023-03-23T18:26:40.931Z,100292.00
2023-03-23T18:29:07.850Z,100295.53
2023-03-23T18:31:39.926Z,100299.91
2023-03-23T18:34:07.530Z,100291.31
2023-03-23T18:36:35.065Z,100300.03
2023-03-23T18:39:03.700Z,100296.66
2023-03-23T18:41:30.681Z,100307.19
2023-03-23T18:43:57.881Z,100308.16
2023-03-23T18:46:25.487Z,100309.13
2023-03-23T18:48:52.492Z,100309.19
2023-03-23T18:51:19.380Z,100304.13
2023-03-23T18:53:46.379Z,100313.66
2023-03-23T18:56:16.439Z,100317.22
2023-03-23T18:58:44.782Z,100311.19
2023-03-23T19:01:16.951Z,100324.34
2023-03-23T19:03:45.313Z,100330.50
2023-03-23T19:06:22.537Z,100341.88
2023-03-23T19:08:50.242Z,100339.31
2023-03-23T19:11:18.153Z,100341.06
2023-03-23T19:13:58.450Z,100335.03
2023-03-23T19:16:31.068Z,100324.66
2023-03-23T19:18:58.137Z,100331.69
2023-03-23T19:21:25.905Z,100331.69
2023-03-23T19:23:55.240Z,100336.06
2023-03-23T19:26:34.708Z,100326.50
2023-03-23T19:31:35.948Z,100335.22
2023-03-23T19:34:02.890Z,100339.59
2023-03-23T19:36:30.316Z,100331.84
2023-03-23T19:38:57.802Z,100328.38
2023-03-23T19:41:30.334Z,100333.63
2023-03-23T19:43:57.607Z,100329.38
2023-03-23T19:46:26.027Z,100334.56
2023-03-23T19:48:54.631Z,100337.22
2023-03-23T19:51:22.465Z,100332.03
2023-03-23T19:53:50.193Z,100332.06
2023-03-23T19:56:21.511Z,100332.09
2023-03-23T19:58:49.042Z,100328.66
2023-03-23T20:01:16.764Z,100332.13
2023-03-23T20:03:44.060Z,100326.03
2023-03-23T20:06:15.119Z,100319.13
2023-03-23T20:08:45.549Z,100326.09
2023-03-23T20:11:17.176Z,100327.88
2023-03-23T20:13:45.936Z,100324.44
2023-03-23T20:16:12.970Z,100324.50
2023-03-23T20:18:40.613Z,100330.53
2023-03-23T20:21:14.473Z,100323.59
2023-03-23T20:23:42.941Z,100323.59
2023-03-23T20:26:14.752Z,100329.72
2023-03-23T20:28:42.682Z,100335.81
2023-03-23T20:31:19.282Z,100326.25
2023-03-23T20:34:00.249Z,100328.91
2023-03-23T20:36:34.783Z,100330.66
2023-03-23T20:39:12.507Z,100321.97
2023-03-23T20:41:40.373Z,100323.75
2023-03-23T20:44:13.739Z,100328.94
2023-03-23T20:46:45.778Z,100332.44
2023-03-23T20:49:13.912Z,100322.03
2023-03-23T20:51:40.987Z,100329.88
2023-03-23T20:54:08.001Z,100328.16
2023-03-23T20:56:35.614Z,100331.63
2023-03-23T20:59:03.701Z,100335.97
2023-03-23T21:01:33.155Z,100329.03
2023-03-23T21:04:00.284Z,100329.03
2023-03-23T21:06:28.768Z,100325.56
2023-03-23T21:08:57.428Z,100327.28
2023-03-23T21:11:26.641Z,100317.75
2023-03-23T21:13:54.278Z,100319.50
2023-03-23T21:16:21.535Z,100316.88
2023-03-23T21:18:48.633Z,100315.16
2023-03-23T21:21:18.381Z,100322.97
2023-03-23T21:23:47.505Z,100329.94
2023-03-23T21:26:17.001Z,100323.84
2023-03-23T21:28:45.796Z,100313.44
2023-03-23T21:31:14.980Z,100313.47
2023-03-23T21:33:42.026Z,100304.81
2023-03-23T21:36:10.096Z,100309.16
2023-03-23T21:38:38.356Z,100306.56
2023-03-23T21:41:14.282Z,100297.03
2023-03-23T21:43:41.730Z,100302.22
2023-03-23T21:46:09.840Z,100299.63
2023-03-23T21:48:41.533Z,100290.09
2023-03-23T21:51:13.416Z,100288.38
2023-03-23T21:53:42.025Z,100290.97
2023-03-23T21:56:10.728Z,100279.69
2023-03-23T21:58:38.387Z,100297.06
2023-03-23T22:01:05.629Z,100294.47
2023-03-23T22:03:35.283Z,100291.88
2023-03-23T22:06:16.310Z,100297.97
2023-03-23T22:08:45.312Z,100294.50
2023-03-23T22:11:17.119Z,100293.63
2023-03-23T22:13:44.238Z,100303.16
2023-03-23T22:16:14.892Z,100291.00
2023-03-23T22:18:43.321Z,100291.00
2023-03-23T22:21:11.341Z,100296.25
2023-03-23T22:23:39.402Z,100286.66
2023-03-23T22:26:07.540Z,100289.28
2023-03-23T22:28:37.072Z,100282.31
2023-03-23T22:31:14.274Z,100287.53
2023-03-23T22:33:41.169Z,100283.22
2023-03-23T22:36:08.846Z,100283.19
2023-03-23T22:38:38.449Z,100271.94
2023-03-23T22:41:08.200Z,100266.69
2023-03-23T22:43:36.637Z,100272.75
2023-03-23T22:46:04.861Z,100257.06
2023-03-23T22:48:31.982Z,100270.97
2023-03-23T22:50:59.532Z,100266.59
2023-03-23T22:53:26.452Z,100259.66
2023-03-23T22:55:56.642Z,100254.47
2023-03-23T22:58:25.913Z,100268.31
2023-03-23T23:01:02.821Z,100267.44
2023-03-23T23:03:30.799Z,100258.72
2023-03-23T23:05:59.462Z,100257.84
2023-03-23T23:08:28.518Z,100256.09
2023-03-23T23:10:57.701Z,100245.69
2023-03-23T23:13:25.913Z,100257.78
2023-03-23T23:15:56.966Z,100248.22
2023-03-23T23:18:25.927Z,100252.53
2023-03-23T23:20:56.355Z,100246.47
2023-03-23T23:23:25.172Z,100240.34
2023-03-23T23:25:52.170Z,100241.22
2023-03-23T23:28:20.236Z,100245.53
2023-03-23T23:30:47.753Z,100250.75
2023-03-23T23:33:14.991Z,100239.41
2023-03-23T23:35:42.491Z,100229.91
2023-03-23T23:38:12.341Z,100241.16
2023-03-23T23:40:41.380Z,100231.59
2023-03-23T23:43:10.713Z,100227.22
2023-03-23T23:45:37.960Z,100220.31
2023-03-23T23:48:05.381Z,100229.88
2023-03-23T23:50:32.800Z,100230.69
2023-03-23T23:53:00.140Z,100223.78
2023-03-23T23:55:27.925Z,100219.44
2023-03-23T23:57:54.847Z,100215.13
